Midway, South Carolina
Current Conditions -  °F | °C
As of 1:22 PM on Wednesday 26 Nov 2014 (Local Time) from KOGB Reporting Station
Overcast Overcast  
Wind Chill: 55°   Ceiling: 3300
Heat Index: 55°   Visibility: 10mi
Dew Point: 45°   Wind: 7mph
Humidity: 69%   Direction: 330°NNW
Pressure: 30.01"   Gusts: NA
Location:  33.2349°N, 80.9745°W
Report Text: KOGB 261822Z AUTO 33006KT 10SM FEW024 BKN033 OVC041 13/07 A3001 RMK AO2 T01280072
Loading
Personal Weather Stations






























Interactive Weather Map New forecast layout! Learn more

10-Day Weather Forecast

Advertisements
Track Severe Weather on mobile